메인 페이지
METAR-TAF:

METAR-TAF

공항 :

Williamsport, 펜실베이니아, 미국

위도: 41-14-30N, 경도: 076-55-15W, 고도: 161m

현재 날씨관측

예보는 30분 전, 06:54시(UTC)에 발표되었습니다.
남동11kt
온도 14°C
습도 77%
기압 1016 hPa
시정: 16.1km
고도 1800ft 상공 구름 많음
고도 2500ft 상공 흐림

METAR: KIPT 220654Z AUTO 13011KT 10SM BKN018 OVC025 14/10 A3001 RMK AO2 PK WND 10027/0642 SLP163 T01440100

시각: 03:24 (07:24 UTC)

예보

예보는 1 시간 58분 전, 05:26시(UTC)에 발표되었습니다.
예보 대상 시간: 22일 06시부터 23일 06시까지 (UTC)
동북동6kt
시정: 10km
고도 3500ft 상공 구름 많음
22일 0700시부터 (UTC)
8kt, 순간 최대 풍속 16kt
시정: 10km
고도 2000ft 상공 흐림
22일 0900시부터 (UTC)
남동8kt, 순간 최대 풍속 16kt
시정: 8.0km
고도 1300ft 상공 흐림
약한이슬비, 박무
22일 1800시부터 (UTC)
남동8kt, 순간 최대 풍속 16kt
시정: 6.4km
고도 1000ft 상공 흐림
비, 박무

TAF: KIPT 220526Z 2206/2306 07006KT P6SM BKN035 WS020/15030KT FM220700 10008G16KT P6SM OVC020 WS020/16035KT FM220900 13008G16KT 5SM -DZ BR OVC013 WS020/16035KT FM221800 14008G16KT 4SM RA BR OVC010 WS020/17035KT

4,000개 이상의 공항 관측 자료 및 예보 (METAR 및 TAF 보고).

지도상에서 검색 가능한 기상관측소가 노란 점과 빨간 점으로 표시되어 있습니다.

기상관측소 명을 보려면 표시 위로 마우스를 이동하세요.

날씨 관측과 예보를 보려면 클릭하세요.

지도 변경 : 확대하려면 엑스 표시가 있는 녹색 버튼, 축소하려면 빼기 표시가 있는 녹색 버튼, 다음 페이지의 지도를 보려면 녹색 화살표를 클릭하세요.


METAR-TAF: